Cape Sakura — 7JHZ — position and weather

sailwx.info

Track history (hours):
 
Tides and Currents Weather Stations Pressure Air Temp Water Temp Dewpoint Dewpoint Depression Visibility Wind Speed Wind Dir Waves Ship Positions

Cape Sakura

Last reported at 2015-May-29 21:13 UTC. Time now 2015-May-30 02:29 UTC.
Position S 33°15' E 152°32'.

Length 292 m; draft 9.4 m.

Type: Cargo ship. MMSI: 432786000.

Date/timePositionNaut miles runAvg speedWind from/ knotsBaromVisibWave heightAir tempDewpointWater temp
2015-May-29 21:13S 33°15' E 152°32'1 0.6
2015-May-29 20:19S 33°15' E 152°32'1 0.6
2015-May-29 19:28S 33°15' E 152°32'1 0.6
2015-May-29 18:31S 33°14' E 152°33'1 0.6
2015-May-29 17:31S 33°14' E 152°33'1 0.6
2015-May-29 16:31S 33°14' E 152°34'1 0.6
2015-May-29 15:19S 33°13' E 152°35'1 0.5
2015-May-29 14:19S 33°13' E 152°35'5 0.6
2015-May-29 06:19S 33°08' E 152°35'1 1.6
2015-May-29 05:31S 33°06' E 152°35'2 1.6
2015-May-29 04:25S 33°05' E 152°36'2 1.5
2015-May-29 03:19S 33°03' E 152°36'1 1.6
2015-May-29 02:31S 33°02' E 152°36'2 1.6
2015-May-29 01:31S 33°00' E 152°35'2 1.6
2015-May-29 00:31S 32°58' E 152°35'1 1.4
2015-May-28 23:31S 32°57' E 152°35'1 1.3
2015-May-28 22:31S 32°56' E 152°34'1 1.2
2015-May-28 21:28S 32°55' E 152°34'1 1.1
2015-May-28 20:31S 32°54' E 152°34'1 1.3
2015-May-28 19:31S 32°53' E 152°35'1 1.4
2015-May-28 18:31S 32°52' E 152°36'2 1.6
2015-May-28 17:31S 32°50' E 152°37'2 1.8
2015-May-28 16:31S 32°49' E 152°38'2 1.8
2015-May-28 15:31S 32°48' E 152°40'2 1.6
2015-May-28 14:31S 32°47' E 152°41'2 1.6
2015-May-28 13:31S 32°45' E 152°42'2 1.6
2015-May-28 12:31S 32°44' E 152°44'2 1.6
2015-May-28 11:31S 32°44' E 152°45'2 1.6
2015-May-28 10:31S 32°43' E 152°47'2 1.5
2015-May-28 09:31S 32°42' E 152°49'2 1.5
2015-May-28 08:31S 32°42' E 152°50'2 1.5
2015-May-28 07:31S 32°41' E 152°52'2 1.8
2015-May-28 06:32S 32°40' E 152°54'8 7.6
2015-May-28 05:29S 32°34' E 152°48'1 0.6
2015-May-28 04:30S 32°34' E 152°48'1 1.0
2015-May-28 03:33S 32°34' E 152°49'1 1.1
2015-May-28 02:33S 32°34' E 152°50'1 0.9
2015-May-28 01:33S 32°34' E 152°52'1 1.0
2015-May-28 00:33S 32°34' E 152°53'1 1.0
2015-May-27 23:33S 32°33' E 152°54'1 1.0
2015-May-27 22:33S 32°33' E 152°55'1 1.0
2015-May-27 21:33S 32°33' E 152°56'1 1.0
2015-May-27 20:33S 32°33' E 152°57'1 1.0
2015-May-27 19:33S 32°32' E 152°58'1 1.0
2015-May-27 18:33S 32°32' E 152°60'1 0.9
2015-May-27 17:33S 32°32' E 153°01'1 0.9
2015-May-27 16:33S 32°31' E 153°01'1 1.0
2015-May-27 15:33S 32°30' E 153°02'1 1.3
2015-May-27 14:33S 32°30' E 153°03'  
2015-May-21 03:33S 27°53' E 153°60'1313.5
2015-May-21 02:33S 27°40' E 154°01'1413.6
2015-May-21 01:33S 27°26' E 154°03'1613.7
2015-May-21 00:24S 27°10' E 154°04'1213.9
2015-May-20 23:33S 26°59' E 154°04'1414.1
2015-May-20 22:33S 26°45' E 154°03'1413.6
2015-May-20 21:30S 26°30' E 154°04'1414.5
2015-May-20 20:34S 26°17' E 154°04'1515.1
2015-May-20 19:33S 26°02' E 154°04'1515.2
2015-May-20 18:34S 25°47' E 154°04'1915.5
2015-May-20 17:20S 25°28' E 154°04'1915.7
2015-May-20 16:07S 25°08' E 154°04'  
Track history (hours):
 
Tides and Currents Weather Stations Pressure Air Temp Water Temp Dewpoint Dewpoint Depression Visibility Wind Speed Wind Dir Waves Ship Positions

Cape Sakura

Last reported at 2015-May-29 21:13 UTC. Time now 2015-May-30 02:29 UTC.
Position S 33°15' E 152°32'.

Length 292 m; draft 9.4 m.

Type: Cargo ship. MMSI: 432786000.

Date/timePositionNaut miles runAvg speedWind from/ knotsBaromVisibWave heightAir tempDewpointWater temp
2015-May-29 21:13S 33°15' E 152°32'1 0.6
2015-May-29 20:19S 33°15' E 152°32'1 0.6
2015-May-29 19:28S 33°15' E 152°32'1 0.6
2015-May-29 18:31S 33°14' E 152°33'1 0.6
2015-May-29 17:31S 33°14' E 152°33'1 0.6
2015-May-29 16:31S 33°14' E 152°34'1 0.6
2015-May-29 15:19S 33°13' E 152°35'1 0.5
2015-May-29 14:19S 33°13' E 152°35'5 0.6
2015-May-29 06:19S 33°08' E 152°35'1 1.6
2015-May-29 05:31S 33°06' E 152°35'2 1.6
2015-May-29 04:25S 33°05' E 152°36'2 1.5
2015-May-29 03:19S 33°03' E 152°36'1 1.6
2015-May-29 02:31S 33°02' E 152°36'2 1.6
2015-May-29 01:31S 33°00' E 152°35'2 1.6
2015-May-29 00:31S 32°58' E 152°35'1 1.4
2015-May-28 23:31S 32°57' E 152°35'1 1.3
2015-May-28 22:31S 32°56' E 152°34'1 1.2
2015-May-28 21:28S 32°55' E 152°34'1 1.1
2015-May-28 20:31S 32°54' E 152°34'1 1.3
2015-May-28 19:31S 32°53' E 152°35'1 1.4
2015-May-28 18:31S 32°52' E 152°36'2 1.6
2015-May-28 17:31S 32°50' E 152°37'2 1.8
2015-May-28 16:31S 32°49' E 152°38'2 1.8
2015-May-28 15:31S 32°48' E 152°40'2 1.6
2015-May-28 14:31S 32°47' E 152°41'2 1.6
2015-May-28 13:31S 32°45' E 152°42'2 1.6
2015-May-28 12:31S 32°44' E 152°44'2 1.6
2015-May-28 11:31S 32°44' E 152°45'2 1.6
2015-May-28 10:31S 32°43' E 152°47'2 1.5
2015-May-28 09:31S 32°42' E 152°49'2 1.5
2015-May-28 08:31S 32°42' E 152°50'2 1.5
2015-May-28 07:31S 32°41' E 152°52'2 1.8
2015-May-28 06:32S 32°40' E 152°54'8 7.6
2015-May-28 05:29S 32°34' E 152°48'1 0.6
2015-May-28 04:30S 32°34' E 152°48'1 1.0
2015-May-28 03:33S 32°34' E 152°49'1 1.1
2015-May-28 02:33S 32°34' E 152°50'1 0.9
2015-May-28 01:33S 32°34' E 152°52'1 1.0
2015-May-28 00:33S 32°34' E 152°53'1 1.0
2015-May-27 23:33S 32°33' E 152°54'1 1.0
2015-May-27 22:33S 32°33' E 152°55'1 1.0
2015-May-27 21:33S 32°33' E 152°56'1 1.0
2015-May-27 20:33S 32°33' E 152°57'1 1.0
2015-May-27 19:33S 32°32' E 152°58'1 1.0
2015-May-27 18:33S 32°32' E 152°60'1 0.9
2015-May-27 17:33S 32°32' E 153°01'1 0.9
2015-May-27 16:33S 32°31' E 153°01'1 1.0
2015-May-27 15:33S 32°30' E 153°02'1 1.3
2015-May-27 14:33S 32°30' E 153°03'  
2015-May-21 03:33S 27°53' E 153°60'1313.5
2015-May-21 02:33S 27°40' E 154°01'1413.6
2015-May-21 01:33S 27°26' E 154°03'1613.7
2015-May-21 00:24S 27°10' E 154°04'1213.9
2015-May-20 23:33S 26°59' E 154°04'1414.1
2015-May-20 22:33S 26°45' E 154°03'1413.6
2015-May-20 21:30S 26°30' E 154°04'1414.5
2015-May-20 20:34S 26°17' E 154°04'1515.1
2015-May-20 19:33S 26°02' E 154°04'1515.2
2015-May-20 18:34S 25°47' E 154°04'1915.5
2015-May-20 17:20S 25°28' E 154°04'1915.7
2015-May-20 16:07S 25°08' E 154°04'  

Dump ship's entire track history